sensor_id;sensor_type;location;lat;lon;timestamp;temperature;humidity
4308;DHT22;2167;53.448;9.984;2023-04-24T00:00:15;13.70;27.90
4308;DHT22;2167;53.448;9.984;2023-04-24T00:02:50;13.70;28.10
4308;DHT22;2167;53.448;9.984;2023-04-24T00:05:16;13.60;29.00
4308;DHT22;2167;53.448;9.984;2023-04-24T00:07:45;13.60;29.60
4308;DHT22;2167;53.448;9.984;2023-04-24T00:10:11;13.70;30.00
4308;DHT22;2167;53.448;9.984;2023-04-24T00:12:37;13.80;30.00
4308;DHT22;2167;53.448;9.984;2023-04-24T00:15:04;13.70;29.60
4308;DHT22;2167;53.448;9.984;2023-04-24T00:17:30;13.80;29.70
4308;DHT22;2167;53.448;9.984;2023-04-24T00:19:56;13.80;29.30
4308;DHT22;2167;53.448;9.984;2023-04-24T00:22:27;13.80;29.40
4308;DHT22;2167;53.448;9.984;2023-04-24T00:24:56;13.80;29.00
4308;DHT22;2167;53.448;9.984;2023-04-24T00:27:27;13.80;28.90
4308;DHT22;2167;53.448;9.984;2023-04-24T00:29:52;13.90;28.70
4308;DHT22;2167;53.448;9.984;2023-04-24T00:32:20;13.80;28.40
4308;DHT22;2167;53.448;9.984;2023-04-24T00:34:46;13.70;28.30
4308;DHT22;2167;53.448;9.984;2023-04-24T00:37:12;13.70;28.90
4308;DHT22;2167;53.448;9.984;2023-04-24T00:39:37;13.70;29.10
4308;DHT22;2167;53.448;9.984;2023-04-24T00:42:03;13.60;28.50
4308;DHT22;2167;53.448;9.984;2023-04-24T00:44:34;13.60;28.60
4308;DHT22;2167;53.448;9.984;2023-04-24T00:47:01;13.60;28.40
4308;DHT22;2167;53.448;9.984;2023-04-24T00:49:27;13.50;28.80
4308;DHT22;2167;53.448;9.984;2023-04-24T00:51:52;13.50;29.00
4308;DHT22;2167;53.448;9.984;2023-04-24T00:54:21;13.50;29.20
4308;DHT22;2167;53.448;9.984;2023-04-24T00:56:50;13.60;29.10
4308;DHT22;2167;53.448;9.984;2023-04-24T00:59:17;13.60;28.80
4308;DHT22;2167;53.448;9.984;2023-04-24T01:01:44;13.50;28.20
4308;DHT22;2167;53.448;9.984;2023-04-24T01:04:12;13.50;28.60
4308;DHT22;2167;53.448;9.984;2023-04-24T01:06:39;13.50;28.40
4308;DHT22;2167;53.448;9.984;2023-04-24T01:09:05;13.40;28.30
4308;DHT22;2167;53.448;9.984;2023-04-24T01:11:33;13.40;28.40
4308;DHT22;2167;53.448;9.984;2023-04-24T01:13:59;13.30;28.80
4308;DHT22;2167;53.448;9.984;2023-04-24T01:16:25;13.20;28.70
4308;DHT22;2167;53.448;9.984;2023-04-24T01:18:51;13.10;29.30
4308;DHT22;2167;53.448;9.984;2023-04-24T01:21:18;13.10;29.50
4308;DHT22;2167;53.448;9.984;2023-04-24T01:23:45;13.10;29.40
4308;DHT22;2167;53.448;9.984;2023-04-24T01:26:15;13.00;29.40
4308;DHT22;2167;53.448;9.984;2023-04-24T01:28:41;13.00;30.10
4308;DHT22;2167;53.448;9.984;2023-04-24T01:31:07;12.90;30.60
4308;DHT22;2167;53.448;9.984;2023-04-24T01:33:33;13.00;30.70
4308;DHT22;2167;53.448;9.984;2023-04-24T01:35:59;12.90;30.80
4308;DHT22;2167;53.448;9.984;2023-04-24T01:38:25;12.90;31.20
4308;DHT22;2167;53.448;9.984;2023-04-24T01:40:51;12.90;30.90
4308;DHT22;2167;53.448;9.984;2023-04-24T01:43:17;12.80;31.10
4308;DHT22;2167;53.448;9.984;2023-04-24T01:45:44;12.80;32.10
4308;DHT22;2167;53.448;9.984;2023-04-24T01:48:10;12.80;32.20
4308;DHT22;2167;53.448;9.984;2023-04-24T01:50:36;12.80;31.80
4308;DHT22;2167;53.448;9.984;2023-04-24T01:53:02;12.80;31.70
4308;DHT22;2167;53.448;9.984;2023-04-24T01:55:27;12.80;31.80
4308;DHT22;2167;53.448;9.984;2023-04-24T01:57:55;12.70;31.70
4308;DHT22;2167;53.448;9.984;2023-04-24T02:00:22;12.70;32.00
4308;DHT22;2167;53.448;9.984;2023-04-24T02:02:47;12.70;30.80
4308;DHT22;2167;53.448;9.984;2023-04-24T02:05:13;12.70;29.70
4308;DHT22;2167;53.448;9.984;2023-04-24T02:07:39;12.60;29.10
4308;DHT22;2167;53.448;9.984;2023-04-24T02:10:05;12.60;29.20
4308;DHT22;2167;53.448;9.984;2023-04-24T02:12:32;12.60;29.20
4308;DHT22;2167;53.448;9.984;2023-04-24T02:14:58;12.50;29.10
4308;DHT22;2167;53.448;9.984;2023-04-24T02:17:23;12.40;29.40
4308;DHT22;2167;53.448;9.984;2023-04-24T02:19:49;12.40;29.70
4308;DHT22;2167;53.448;9.984;2023-04-24T02:22:15;12.30;29.90
4308;DHT22;2167;53.448;9.984;2023-04-24T02:24:41;12.30;30.00
4308;DHT22;2167;53.448;9.984;2023-04-24T02:27:07;12.20;30.00
4308;DHT22;2167;53.448;9.984;2023-04-24T02:29:33;12.20;29.70
4308;DHT22;2167;53.448;9.984;2023-04-24T02:31:59;12.20;29.80
4308;DHT22;2167;53.448;9.984;2023-04-24T02:34:25;12.10;30.10
4308;DHT22;2167;53.448;9.984;2023-04-24T02:36:50;12.10;30.20
4308;DHT22;2167;53.448;9.984;2023-04-24T02:39:16;12.00;30.20
4308;DHT22;2167;53.448;9.984;2023-04-24T02:41:43;12.00;30.40
4308;DHT22;2167;53.448;9.984;2023-04-24T02:44:08;12.00;30.20
4308;DHT22;2167;53.448;9.984;2023-04-24T02:46:34;12.00;30.20
4308;DHT22;2167;53.448;9.984;2023-04-24T02:49:01;12.00;30.30
4308;DHT22;2167;53.448;9.984;2023-04-24T02:51:27;11.90;29.90
4308;DHT22;2167;53.448;9.984;2023-04-24T02:53:55;12.00;29.80
4308;DHT22;2167;53.448;9.984;2023-04-24T02:56:20;12.00;29.70
4308;DHT22;2167;53.448;9.984;2023-04-24T02:58:46;11.90;29.80
4308;DHT22;2167;53.448;9.984;2023-04-24T03:01:12;11.90;29.80
4308;DHT22;2167;53.448;9.984;2023-04-24T03:03:39;11.90;29.20
4308;DHT22;2167;53.448;9.984;2023-04-24T03:06:05;11.80;29.40
4308;DHT22;2167;53.448;9.984;2023-04-24T03:08:31;11.80;29.70
4308;DHT22;2167;53.448;9.984;2023-04-24T03:10:57;11.70;29.30
4308;DHT22;2167;53.448;9.984;2023-04-24T03:13:23;11.60;29.40
4308;DHT22;2167;53.448;9.984;2023-04-24T03:15:51;11.50;28.90
4308;DHT22;2167;53.448;9.984;2023-04-24T03:18:17;11.60;29.10
4308;DHT22;2167;53.448;9.984;2023-04-24T03:20:45;11.50;29.60
4308;DHT22;2167;53.448;9.984;2023-04-24T03:23:11;11.50;29.00
4308;DHT22;2167;53.448;9.984;2023-04-24T03:25:37;11.50;28.60
4308;DHT22;2167;53.448;9.984;2023-04-24T03:28:03;11.40;28.70
4308;DHT22;2167;53.448;9.984;2023-04-24T03:30:28;11.40;29.00
4308;DHT22;2167;53.448;9.984;2023-04-24T03:32:54;11.30;28.80
4308;DHT22;2167;53.448;9.984;2023-04-24T03:35:20;11.20;28.70
4308;DHT22;2167;53.448;9.984;2023-04-24T03:37:47;11.20;28.80
4308;DHT22;2167;53.448;9.984;2023-04-24T03:40:13;11.10;29.00
4308;DHT22;2167;53.448;9.984;2023-04-24T03:42:38;11.10;28.90
4308;DHT22;2167;53.448;9.984;2023-04-24T03:45:05;11.10;28.60
4308;DHT22;2167;53.448;9.984;2023-04-24T03:47:30;11.10;28.10
4308;DHT22;2167;53.448;9.984;2023-04-24T03:49:56;11.10;28.50
4308;DHT22;2167;53.448;9.984;2023-04-24T03:52:22;11.00;27.50
4308;DHT22;2167;53.448;9.984;2023-04-24T03:54:47;11.10;27.40
4308;DHT22;2167;53.448;9.984;2023-04-24T03:57:13;11.00;26.50
4308;DHT22;2167;53.448;9.984;2023-04-24T03:59:39;11.00;26.10
4308;DHT22;2167;53.448;9.984;2023-04-24T04:02:04;11.00;26.50
4308;DHT22;2167;53.448;9.984;2023-04-24T04:04:30;10.90;26.40
4308;DHT22;2167;53.448;9.984;2023-04-24T04:06:56;11.00;26.40
4308;DHT22;2167;53.448;9.984;2023-04-24T04:09:21;10.90;25.10
4308;DHT22;2167;53.448;9.984;2023-04-24T04:11:47;10.90;24.30
4308;DHT22;2167;53.448;9.984;2023-04-24T04:14:12;10.90;23.50
4308;DHT22;2167;53.448;9.984;2023-04-24T04:16:38;10.90;23.10
4308;DHT22;2167;53.448;9.984;2023-04-24T04:19:04;10.90;22.70
4308;DHT22;2167;53.448;9.984;2023-04-24T04:21:30;10.80;22.60
4308;DHT22;2167;53.448;9.984;2023-04-24T04:23:57;10.80;22.20
4308;DHT22;2167;53.448;9.984;2023-04-24T04:26:25;10.80;22.70
4308;DHT22;2167;53.448;9.984;2023-04-24T04:28:54;10.80;22.40
4308;DHT22;2167;53.448;9.984;2023-04-24T04:31:20;10.80;22.20
4308;DHT22;2167;53.448;9.984;2023-04-24T04:33:46;10.80;22.20
4308;DHT22;2167;53.448;9.984;2023-04-24T04:36:12;10.70;21.40
4308;DHT22;2167;53.448;9.984;2023-04-24T04:38:38;10.70;21.10
4308;DHT22;2167;53.448;9.984;2023-04-24T04:41:03;10.70;20.60
4308;DHT22;2167;53.448;9.984;2023-04-24T04:43:29;10.70;21.10
4308;DHT22;2167;53.448;9.984;2023-04-24T04:45:57;10.80;21.50
4308;DHT22;2167;53.448;9.984;2023-04-24T04:48:23;10.80;22.00
4308;DHT22;2167;53.448;9.984;2023-04-24T04:50:48;10.80;21.10
4308;DHT22;2167;53.448;9.984;2023-04-24T04:53:14;10.90;21.50
4308;DHT22;2167;53.448;9.984;2023-04-24T04:55:40;10.90;20.00
4308;DHT22;2167;53.448;9.984;2023-04-24T04:58:05;10.90;19.20
4308;DHT22;2167;53.448;9.984;2023-04-24T05:00:31;10.90;19.50
4308;DHT22;2167;53.448;9.984;2023-04-24T05:03:01;11.00;19.20
4308;DHT22;2167;53.448;9.984;2023-04-24T05:05:27;11.00;19.10
4308;DHT22;2167;53.448;9.984;2023-04-24T05:07:53;11.00;18.70
4308;DHT22;2167;53.448;9.984;2023-04-24T05:10:19;11.00;18.30
4308;DHT22;2167;53.448;9.984;2023-04-24T05:12:44;11.00;18.20
4308;DHT22;2167;53.448;9.984;2023-04-24T05:15:10;11.00;19.00
4308;DHT22;2167;53.448;9.984;2023-04-24T05:17:36;11.10;18.40
4308;DHT22;2167;53.448;9.984;2023-04-24T05:20:05;11.10;17.40
4308;DHT22;2167;53.448;9.984;2023-04-24T05:22:32;11.10;17.20
4308;DHT22;2167;53.448;9.984;2023-04-24T05:24:57;11.10;16.90
4308;DHT22;2167;53.448;9.984;2023-04-24T05:27:24;11.10;18.00
4308;DHT22;2167;53.448;9.984;2023-04-24T05:29:49;11.10;18.00
4308;DHT22;2167;53.448;9.984;2023-04-24T05:32:15;11.20;17.80
4308;DHT22;2167;53.448;9.984;2023-04-24T05:34:41;11.30;17.90
4308;DHT22;2167;53.448;9.984;2023-04-24T05:37:06;11.30;16.90
4308;DHT22;2167;53.448;9.984;2023-04-24T05:39:35;11.30;16.70
4308;DHT22;2167;53.448;9.984;2023-04-24T05:42:01;11.30;17.20
4308;DHT22;2167;53.448;9.984;2023-04-24T05:44:27;11.40;17.20
4308;DHT22;2167;53.448;9.984;2023-04-24T05:46:53;11.40;16.50
4308;DHT22;2167;53.448;9.984;2023-04-24T05:49:20;11.50;16.40
4308;DHT22;2167;53.448;9.984;2023-04-24T05:51:46;11.60;15.90
4308;DHT22;2167;53.448;9.984;2023-04-24T05:54:11;11.60;14.00
4308;DHT22;2167;53.448;9.984;2023-04-24T05:56:38;11.60;15.30
4308;DHT22;2167;53.448;9.984;2023-04-24T05:59:04;11.70;14.70
4308;DHT22;2167;53.448;9.984;2023-04-24T06:01:29;11.70;13.40
4308;DHT22;2167;53.448;9.984;2023-04-24T06:03:55;11.60;14.00
4308;DHT22;2167;53.448;9.984;2023-04-24T06:06:21;11.70;14.80
4308;DHT22;2167;53.448;9.984;2023-04-24T06:08:46;11.70;14.50
4308;DHT22;2167;53.448;9.984;2023-04-24T06:11:12;11.80;14.80
4308;DHT22;2167;53.448;9.984;2023-04-24T06:13:37;11.80;12.30
4308;DHT22;2167;53.448;9.984;2023-04-24T06:16:04;11.90;10.80
4308;DHT22;2167;53.448;9.984;2023-04-24T06:18:29;11.90;12.00
4308;DHT22;2167;53.448;9.984;2023-04-24T06:20:55;12.00;11.00
4308;DHT22;2167;53.448;9.984;2023-04-24T06:23:21;12.00;10.00
4308;DHT22;2167;53.448;9.984;2023-04-24T06:25:47;12.00;11.50
4308;DHT22;2167;53.448;9.984;2023-04-24T06:28:13;12.10;11.40
4308;DHT22;2167;53.448;9.984;2023-04-24T06:30:38;12.10;11.70
4308;DHT22;2167;53.448;9.984;2023-04-24T06:33:04;12.20;12.20
4308;DHT22;2167;53.448;9.984;2023-04-24T06:35:30;12.20;8.50
4308;DHT22;2167;53.448;9.984;2023-04-24T06:37:55;12.30;7.60
4308;DHT22;2167;53.448;9.984;2023-04-24T06:40:22;12.30;8.40
4308;DHT22;2167;53.448;9.984;2023-04-24T06:42:47;12.30;9.80
4308;DHT22;2167;53.448;9.984;2023-04-24T06:45:13;12.30;7.90
4308;DHT22;2167;53.448;9.984;2023-04-24T06:47:39;12.40;6.40
4308;DHT22;2167;53.448;9.984;2023-04-24T06:50:05;12.40;5.80
4308;DHT22;2167;53.448;9.984;2023-04-24T06:52:31;12.40;7.00
4308;DHT22;2167;53.448;9.984;2023-04-24T06:55:03;12.50;6.20
4308;DHT22;2167;53.448;9.984;2023-04-24T06:57:29;12.50;7.20
4308;DHT22;2167;53.448;9.984;2023-04-24T06:59:55;12.60;4.20
4308;DHT22;2167;53.448;9.984;2023-04-24T07:02:20;12.60;5.60
4308;DHT22;2167;53.448;9.984;2023-04-24T07:04:46;12.60;4.50
4308;DHT22;2167;53.448;9.984;2023-04-24T07:07:13;12.70;3.70
4308;DHT22;2167;53.448;9.984;2023-04-24T07:09:40;12.70;2.80
4308;DHT22;2167;53.448;9.984;2023-04-24T07:12:11;12.70;3.70
4308;DHT22;2167;53.448;9.984;2023-04-24T07:14:37;12.80;3.20
4308;DHT22;2167;53.448;9.984;2023-04-24T07:17:04;12.80;4.50
4308;DHT22;2167;53.448;9.984;2023-04-24T07:19:30;12.90;3.20
4308;DHT22;2167;53.448;9.984;2023-04-24T07:21:55;12.90;1.30
4308;DHT22;2167;53.448;9.984;2023-04-24T07:24:24;12.90;1.30
4308;DHT22;2167;53.448;9.984;2023-04-24T07:26:51;12.90;1.00
4308;DHT22;2167;53.448;9.984;2023-04-24T07:29:17;12.90;1.00
4308;DHT22;2167;53.448;9.984;2023-04-24T07:31:43;12.90;1.00
4308;DHT22;2167;53.448;9.984;2023-04-24T07:34:09;13.00;1.00
4308;DHT22;2167;53.448;9.984;2023-04-24T07:36:35;13.30;1.00
4308;DHT22;2167;53.448;9.984;2023-04-24T07:39:01;13.50;1.00
4308;DHT22;2167;53.448;9.984;2023-04-24T07:41:26;13.60;1.00
4308;DHT22;2167;53.448;9.984;2023-04-24T07:43:53;13.70;1.00
4308;DHT22;2167;53.448;9.984;2023-04-24T07:46:21;13.60;1.00
4308;DHT22;2167;53.448;9.984;2023-04-24T07:48:47;13.50;1.00
4308;DHT22;2167;53.448;9.984;2023-04-24T07:51:14;13.50;1.00
4308;DHT22;2167;53.448;9.984;2023-04-24T07:53:40;13.50;1.00
4308;DHT22;2167;53.448;9.984;2023-04-24T07:56:05;13.50;1.00
4308;DHT22;2167;53.448;9.984;2023-04-24T07:58:31;13.40;1.00
4308;DHT22;2167;53.448;9.984;2023-04-24T08:00:56;13.40;1.00
4308;DHT22;2167;53.448;9.984;2023-04-24T08:03:22;13.50;1.00
4308;DHT22;2167;53.448;9.984;2023-04-24T08:05:48;13.40;1.00
4308;DHT22;2167;53.448;9.984;2023-04-24T08:08:13;13.40;1.00
4308;DHT22;2167;53.448;9.984;2023-04-24T08:10:39;13.40;1.00
4308;DHT22;2167;53.448;9.984;2023-04-24T08:13:05;13.40;1.00
4308;DHT22;2167;53.448;9.984;2023-04-24T08:15:30;13.40;1.00
4308;DHT22;2167;53.448;9.984;2023-04-24T08:17:57;13.30;1.00
4308;DHT22;2167;53.448;9.984;2023-04-24T08:20:23;13.20;1.00
4308;DHT22;2167;53.448;9.984;2023-04-24T08:22:48;13.20;1.00
4308;DHT22;2167;53.448;9.984;2023-04-24T08:25:14;13.20;1.00
4308;DHT22;2167;53.448;9.984;2023-04-24T08:27:40;13.30;1.00
4308;DHT22;2167;53.448;9.984;2023-04-24T08:30:06;13.20;1.00
4308;DHT22;2167;53.448;9.984;2023-04-24T08:32:32;13.30;1.00
4308;DHT22;2167;53.448;9.984;2023-04-24T08:34:59;13.20;1.00
4308;DHT22;2167;53.448;9.984;2023-04-24T08:37:26;13.10;1.00
4308;DHT22;2167;53.448;9.984;2023-04-24T08:39:52;13.10;1.00
4308;DHT22;2167;53.448;9.984;2023-04-24T08:42:19;13.00;1.00
4308;DHT22;2167;53.448;9.984;2023-04-24T08:44:45;13.20;1.00
4308;DHT22;2167;53.448;9.984;2023-04-24T08:47:12;13.30;1.00
4308;DHT22;2167;53.448;9.984;2023-04-24T08:49:38;13.30;1.00
4308;DHT22;2167;53.448;9.984;2023-04-24T08:52:07;13.40;1.00
4308;DHT22;2167;53.448;9.984;2023-04-24T08:54:36;13.50;1.00
4308;DHT22;2167;53.448;9.984;2023-04-24T08:57:03;13.50;1.00
4308;DHT22;2167;53.448;9.984;2023-04-24T08:59:30;13.50;1.00
4308;DHT22;2167;53.448;9.984;2023-04-24T09:01:57;13.50;1.00
4308;DHT22;2167;53.448;9.984;2023-04-24T09:04:23;13.50;1.00
4308;DHT22;2167;53.448;9.984;2023-04-24T09:06:57;13.40;1.00
4308;DHT22;2167;53.448;9.984;2023-04-24T09:09:26;13.40;1.00
4308;DHT22;2167;53.448;9.984;2023-04-24T09:11:55;13.40;1.00
4308;DHT22;2167;53.448;9.984;2023-04-24T09:14:23;13.20;1.00
4308;DHT22;2167;53.448;9.984;2023-04-24T09:16:49;13.10;1.00
4308;DHT22;2167;53.448;9.984;2023-04-24T09:19:15;13.10;1.00
4308;DHT22;2167;53.448;9.984;2023-04-24T09:21:41;13.00;1.00
4308;DHT22;2167;53.448;9.984;2023-04-24T09:24:18;13.00;1.00
4308;DHT22;2167;53.448;9.984;2023-04-24T09:26:45;13.10;1.00
4308;DHT22;2167;53.448;9.984;2023-04-24T09:29:15;13.00;1.00
4308;DHT22;2167;53.448;9.984;2023-04-24T09:31:42;13.20;1.00
4308;DHT22;2167;53.448;9.984;2023-04-24T09:34:08;13.30;1.00
4308;DHT22;2167;53.448;9.984;2023-04-24T09:36:39;13.40;1.00
4308;DHT22;2167;53.448;9.984;2023-04-24T09:39:10;13.50;1.00
4308;DHT22;2167;53.448;9.984;2023-04-24T09:41:48;13.50;1.00
4308;DHT22;2167;53.448;9.984;2023-04-24T09:46:55;13.40;1.00
4308;DHT22;2167;53.448;9.984;2023-04-24T09:49:29;13.40;1.00
4308;DHT22;2167;53.448;9.984;2023-04-24T09:52:11;13.50;1.00
4308;DHT22;2167;53.448;9.984;2023-04-24T09:54:38;13.60;1.00
4308;DHT22;2167;53.448;9.984;2023-04-24T09:57:03;13.70;1.00
4308;DHT22;2167;53.448;9.984;2023-04-24T09:59:29;13.80;1.00
4308;DHT22;2167;53.448;9.984;2023-04-24T10:01:55;13.70;1.00
4308;DHT22;2167;53.448;9.984;2023-04-24T10:04:25;13.60;1.00
4308;DHT22;2167;53.448;9.984;2023-04-24T10:06:52;13.70;1.00
4308;DHT22;2167;53.448;9.984;2023-04-24T10:09:21;13.70;1.00
4308;DHT22;2167;53.448;9.984;2023-04-24T10:11:49;13.70;1.00
4308;DHT22;2167;53.448;9.984;2023-04-24T10:14:18;13.80;1.00
4308;DHT22;2167;53.448;9.984;2023-04-24T10:16:46;13.70;1.00
4308;DHT22;2167;53.448;9.984;2023-04-24T10:19:13;13.70;1.00
4308;DHT22;2167;53.448;9.984;2023-04-24T10:21:41;13.70;1.00
4308;DHT22;2167;53.448;9.984;2023-04-24T10:24:12;13.50;1.00
4308;DHT22;2167;53.448;9.984;2023-04-24T10:26:38;13.50;1.00
4308;DHT22;2167;53.448;9.984;2023-04-24T10:29:06;13.40;1.00
4308;DHT22;2167;53.448;9.984;2023-04-24T10:31:36;13.30;1.00
4308;DHT22;2167;53.448;9.984;2023-04-24T10:34:04;13.20;1.00
4308;DHT22;2167;53.448;9.984;2023-04-24T10:36:31;13.20;1.00
4308;DHT22;2167;53.448;9.984;2023-04-24T10:38:59;13.30;1.00
4308;DHT22;2167;53.448;9.984;2023-04-24T10:41:26;13.30;1.00
4308;DHT22;2167;53.448;9.984;2023-04-24T10:44:12;13.40;1.00
4308;DHT22;2167;53.448;9.984;2023-04-24T10:46:42;13.50;1.00
4308;DHT22;2167;53.448;9.984;2023-04-24T10:49:08;13.60;1.00
4308;DHT22;2167;53.448;9.984;2023-04-24T10:51:53;13.90;1.00
4308;DHT22;2167;53.448;9.984;2023-04-24T10:54:33;14.20;1.00
4308;DHT22;2167;53.448;9.984;2023-04-24T10:59:44;14.60;1.00
4308;DHT22;2167;53.448;9.984;2023-04-24T11:02:09;14.80;1.00
4308;DHT22;2167;53.448;9.984;2023-04-24T11:04:35;15.00;1.00
4308;DHT22;2167;53.448;9.984;2023-04-24T11:07:04;15.10;1.00
4308;DHT22;2167;53.448;9.984;2023-04-24T11:09:31;14.90;1.00
4308;DHT22;2167;53.448;9.984;2023-04-24T11:12:05;14.70;1.00
4308;DHT22;2167;53.448;9.984;2023-04-24T11:17:31;14.30;1.00
4308;DHT22;2167;53.448;9.984;2023-04-24T11:20:10;14.30;1.00
4308;DHT22;2167;53.448;9.984;2023-04-24T11:22:38;14.20;1.00
4308;DHT22;2167;53.448;9.984;2023-04-24T11:25:06;14.30;1.00
4308;DHT22;2167;53.448;9.984;2023-04-24T11:27:39;14.20;1.00
4308;DHT22;2167;53.448;9.984;2023-04-24T11:30:06;14.20;1.00
4308;DHT22;2167;53.448;9.984;2023-04-24T11:32:39;14.20;1.00
4308;DHT22;2167;53.448;9.984;2023-04-24T11:35:13;14.30;1.00
4308;DHT22;2167;53.448;9.984;2023-04-24T11:37:41;14.40;1.00
4308;DHT22;2167;53.448;9.984;2023-04-24T11:40:09;14.40;1.00
4308;DHT22;2167;53.448;9.984;2023-04-24T11:42:37;14.40;1.00
4308;DHT22;2167;53.448;9.984;2023-04-24T11:45:11;14.40;1.00
4308;DHT22;2167;53.448;9.984;2023-04-24T11:47:37;14.40;1.00
4308;DHT22;2167;53.448;9.984;2023-04-24T11:50:05;14.40;1.00
4308;DHT22;2167;53.448;9.984;2023-04-24T11:52:31;14.30;1.00
4308;DHT22;2167;53.448;9.984;2023-04-24T11:54:59;14.10;1.00
4308;DHT22;2167;53.448;9.984;2023-04-24T11:57:25;14.30;1.00
4308;DHT22;2167;53.448;9.984;2023-04-24T11:59:59;14.40;1.00
4308;DHT22;2167;53.448;9.984;2023-04-24T12:02:26;14.50;1.00
4308;DHT22;2167;53.448;9.984;2023-04-24T12:04:55;14.60;1.00
4308;DHT22;2167;53.448;9.984;2023-04-24T12:07:22;14.60;1.00
4308;DHT22;2167;53.448;9.984;2023-04-24T12:09:57;14.60;1.00
4308;DHT22;2167;53.448;9.984;2023-04-24T12:12:28;14.50;1.00
4308;DHT22;2167;53.448;9.984;2023-04-24T12:14:57;14.60;1.00
4308;DHT22;2167;53.448;9.984;2023-04-24T12:17:31;14.60;1.00
4308;DHT22;2167;53.448;9.984;2023-04-24T12:20:04;14.70;1.00
4308;DHT22;2167;53.448;9.984;2023-04-24T12:23:09;14.80;1.00
4308;DHT22;2167;53.448;9.984;2023-04-24T12:25:35;14.70;1.00
4308;DHT22;2167;53.448;9.984;2023-04-24T12:30:34;14.30;1.00
4308;DHT22;2167;53.448;9.984;2023-04-24T12:33:01;14.20;1.00
4308;DHT22;2167;53.448;9.984;2023-04-24T12:35:29;14.00;1.00
4308;DHT22;2167;53.448;9.984;2023-04-24T12:37:55;13.90;1.00
4308;DHT22;2167;53.448;9.984;2023-04-24T12:40:21;13.90;1.00
4308;DHT22;2167;53.448;9.984;2023-04-24T12:42:49;13.70;1.00
4308;DHT22;2167;53.448;9.984;2023-04-24T12:45:18;13.60;1.00
4308;DHT22;2167;53.448;9.984;2023-04-24T12:47:45;13.50;1.00
4308;DHT22;2167;53.448;9.984;2023-04-24T12:50:12;13.40;1.00
4308;DHT22;2167;53.448;9.984;2023-04-24T12:52:39;13.30;1.00
4308;DHT22;2167;53.448;9.984;2023-04-24T12:55:05;13.30;1.00
4308;DHT22;2167;53.448;9.984;2023-04-24T12:57:34;13.30;1.00
4308;DHT22;2167;53.448;9.984;2023-04-24T13:00:00;13.30;1.00
4308;DHT22;2167;53.448;9.984;2023-04-24T13:02:28;13.20;1.00
4308;DHT22;2167;53.448;9.984;2023-04-24T13:04:54;13.10;1.00
4308;DHT22;2167;53.448;9.984;2023-04-24T13:07:20;13.10;1.00
4308;DHT22;2167;53.448;9.984;2023-04-24T13:09:48;13.00;1.00
4308;DHT22;2167;53.448;9.984;2023-04-24T13:12:14;12.90;1.00
4308;DHT22;2167;53.448;9.984;2023-04-24T13:14:40;12.90;1.00
4308;DHT22;2167;53.448;9.984;2023-04-24T13:17:05;12.80;1.00
4308;DHT22;2167;53.448;9.984;2023-04-24T13:19:36;12.90;1.00
4308;DHT22;2167;53.448;9.984;2023-04-24T13:22:03;12.80;1.00
4308;DHT22;2167;53.448;9.984;2023-04-24T13:24:29;12.90;1.00
4308;DHT22;2167;53.448;9.984;2023-04-24T13:26:54;12.90;1.00
4308;DHT22;2167;53.448;9.984;2023-04-24T13:29:22;12.90;1.00
4308;DHT22;2167;53.448;9.984;2023-04-24T13:31:49;12.90;1.00
4308;DHT22;2167;53.448;9.984;2023-04-24T13:34:15;12.90;1.00
4308;DHT22;2167;53.448;9.984;2023-04-24T13:36:41;13.00;1.00
4308;DHT22;2167;53.448;9.984;2023-04-24T13:39:08;13.10;1.00
4308;DHT22;2167;53.448;9.984;2023-04-24T13:41:34;13.10;1.00
4308;DHT22;2167;53.448;9.984;2023-04-24T13:44:00;13.10;1.00
4308;DHT22;2167;53.448;9.984;2023-04-24T13:46:26;13.00;1.00
4308;DHT22;2167;53.448;9.984;2023-04-24T13:48:52;13.00;1.00
4308;DHT22;2167;53.448;9.984;2023-04-24T13:51:18;12.90;1.00
4308;DHT22;2167;53.448;9.984;2023-04-24T13:53:43;12.80;1.00
4308;DHT22;2167;53.448;9.984;2023-04-24T13:56:09;12.80;1.00
4308;DHT22;2167;53.448;9.984;2023-04-24T13:58:35;12.70;1.00
4308;DHT22;2167;53.448;9.984;2023-04-24T14:01:04;12.70;1.00
4308;DHT22;2167;53.448;9.984;2023-04-24T14:03:29;12.60;1.00
4308;DHT22;2167;53.448;9.984;2023-04-24T14:05:55;12.60;1.00
4308;DHT22;2167;53.448;9.984;2023-04-24T14:08:21;12.60;1.00
4308;DHT22;2167;53.448;9.984;2023-04-24T14:10:47;12.60;1.00
4308;DHT22;2167;53.448;9.984;2023-04-24T14:13:12;12.80;1.00
4308;DHT22;2167;53.448;9.984;2023-04-24T14:15:38;12.90;1.00
4308;DHT22;2167;53.448;9.984;2023-04-24T14:18:04;13.10;1.00
4308;DHT22;2167;53.448;9.984;2023-04-24T14:20:30;13.40;1.00
4308;DHT22;2167;53.448;9.984;2023-04-24T14:22:56;13.40;1.00
4308;DHT22;2167;53.448;9.984;2023-04-24T14:25:25;13.50;1.00
4308;DHT22;2167;53.448;9.984;2023-04-24T14:27:51;13.50;1.00
4308;DHT22;2167;53.448;9.984;2023-04-24T14:30:17;13.40;1.00
4308;DHT22;2167;53.448;9.984;2023-04-24T14:32:43;13.40;1.00
4308;DHT22;2167;53.448;9.984;2023-04-24T14:35:08;13.30;1.00
4308;DHT22;2167;53.448;9.984;2023-04-24T14:37:34;13.20;1.00
4308;DHT22;2167;53.448;9.984;2023-04-24T14:40:01;13.10;1.00
4308;DHT22;2167;53.448;9.984;2023-04-24T14:42:27;13.10;1.00
4308;DHT22;2167;53.448;9.984;2023-04-24T14:44:54;13.00;1.00
4308;DHT22;2167;53.448;9.984;2023-04-24T14:47:20;12.90;4.30
4308;DHT22;2167;53.448;9.984;2023-04-24T14:49:49;12.90;8.60
4308;DHT22;2167;53.448;9.984;2023-04-24T14:52:14;12.70;11.40
4308;DHT22;2167;53.448;9.984;2023-04-24T14:54:41;12.70;14.90
4308;DHT22;2167;53.448;9.984;2023-04-24T14:57:07;12.50;18.10
4308;DHT22;2167;53.448;9.984;2023-04-24T14:59:33;12.40;20.10
4308;DHT22;2167;53.448;9.984;2023-04-24T15:01:58;12.30;21.20
4308;DHT22;2167;53.448;9.984;2023-04-24T15:04:24;12.30;22.10
4308;DHT22;2167;53.448;9.984;2023-04-24T15:06:53;12.20;23.10
4308;DHT22;2167;53.448;9.984;2023-04-24T15:09:23;12.00;24.80
4308;DHT22;2167;53.448;9.984;2023-04-24T15:11:54;12.00;25.90
4308;DHT22;2167;53.448;9.984;2023-04-24T15:14:20;12.10;26.80
4308;DHT22;2167;53.448;9.984;2023-04-24T15:16:46;12.00;27.40
4308;DHT22;2167;53.448;9.984;2023-04-24T15:19:11;12.00;28.00
4308;DHT22;2167;53.448;9.984;2023-04-24T15:21:37;12.00;27.60
4308;DHT22;2167;53.448;9.984;2023-04-24T15:24:04;12.00;27.90
4308;DHT22;2167;53.448;9.984;2023-04-24T15:26:29;12.00;27.20
4308;DHT22;2167;53.448;9.984;2023-04-24T15:28:55;11.90;27.20
4308;DHT22;2167;53.448;9.984;2023-04-24T15:31:21;11.80;26.20
4308;DHT22;2167;53.448;9.984;2023-04-24T15:33:49;11.80;27.00
4308;DHT22;2167;53.448;9.984;2023-04-24T15:36:18;11.70;28.00
4308;DHT22;2167;53.448;9.984;2023-04-24T15:38:44;11.70;27.80
4308;DHT22;2167;53.448;9.984;2023-04-24T15:41:10;11.50;25.90
4308;DHT22;2167;53.448;9.984;2023-04-24T15:43:36;11.40;25.40
4308;DHT22;2167;53.448;9.984;2023-04-24T15:46:05;11.40;25.50
4308;DHT22;2167;53.448;9.984;2023-04-24T15:48:31;11.30;25.00
4308;DHT22;2167;53.448;9.984;2023-04-24T15:50:57;11.20;25.60
4308;DHT22;2167;53.448;9.984;2023-04-24T15:53:23;11.10;25.50
4308;DHT22;2167;53.448;9.984;2023-04-24T15:55:50;10.90;25.90
4308;DHT22;2167;53.448;9.984;2023-04-24T15:58:18;10.90;26.00
4308;DHT22;2167;53.448;9.984;2023-04-24T16:00:44;10.70;25.40
4308;DHT22;2167;53.448;9.984;2023-04-24T16:03:10;10.70;26.60
4308;DHT22;2167;53.448;9.984;2023-04-24T16:05:36;10.60;27.20
4308;DHT22;2167;53.448;9.984;2023-04-24T16:08:02;10.50;27.90
4308;DHT22;2167;53.448;9.984;2023-04-24T16:10:28;10.50;29.20
4308;DHT22;2167;53.448;9.984;2023-04-24T16:12:53;10.50;29.90
4308;DHT22;2167;53.448;9.984;2023-04-24T16:15:21;10.50;29.80
4308;DHT22;2167;53.448;9.984;2023-04-24T16:17:48;10.50;29.40